sensor_id;sensor_type;location;lat;lon;timestamp;temperature;humidity
39189;DHT22;24915;50.858;4.376;2022-08-14T00:01:08;25.20;56.00
39189;DHT22;24915;50.858;4.376;2022-08-14T00:03:34;25.20;56.00
39189;DHT22;24915;50.858;4.376;2022-08-14T00:06:01;25.10;56.10
39189;DHT22;24915;50.858;4.376;2022-08-14T00:08:27;25.10;56.10
39189;DHT22;24915;50.858;4.376;2022-08-14T00:10:53;25.00;56.10
39189;DHT22;24915;50.858;4.376;2022-08-14T00:13:21;25.00;56.20
39189;DHT22;24915;50.858;4.376;2022-08-14T00:15:48;25.00;56.20
39189;DHT22;24915;50.858;4.376;2022-08-14T00:18:18;25.00;56.20
39189;DHT22;24915;50.858;4.376;2022-08-14T00:20:44;25.00;56.30
39189;DHT22;24915;50.858;4.376;2022-08-14T00:23:12;24.90;56.30
39189;DHT22;24915;50.858;4.376;2022-08-14T00:25:38;24.90;56.30
39189;DHT22;24915;50.858;4.376;2022-08-14T00:28:07;24.80;56.40
39189;DHT22;24915;50.858;4.376;2022-08-14T00:30:34;24.80;56.30
39189;DHT22;24915;50.858;4.376;2022-08-14T00:32:59;24.70;56.50
39189;DHT22;24915;50.858;4.376;2022-08-14T00:35:25;24.70;56.40
39189;DHT22;24915;50.858;4.376;2022-08-14T00:37:51;24.70;56.40
39189;DHT22;24915;50.858;4.376;2022-08-14T00:40:19;24.70;56.40
39189;DHT22;24915;50.858;4.376;2022-08-14T00:42:45;24.70;56.10
39189;DHT22;24915;50.858;4.376;2022-08-14T00:45:12;24.70;56.00
39189;DHT22;24915;50.858;4.376;2022-08-14T00:47:40;24.70;56.00
39189;DHT22;24915;50.858;4.376;2022-08-14T00:50:08;24.70;55.80
39189;DHT22;24915;50.858;4.376;2022-08-14T00:52:34;24.70;55.60
39189;DHT22;24915;50.858;4.376;2022-08-14T00:55:01;24.60;55.50
39189;DHT22;24915;50.858;4.376;2022-08-14T00:57:30;24.70;55.50
39189;DHT22;24915;50.858;4.376;2022-08-14T00:59:55;24.70;56.00
39189;DHT22;24915;50.858;4.376;2022-08-14T01:02:22;24.60;55.40
39189;DHT22;24915;50.858;4.376;2022-08-14T01:04:51;24.60;55.20
39189;DHT22;24915;50.858;4.376;2022-08-14T01:07:17;24.60;55.60
39189;DHT22;24915;50.858;4.376;2022-08-14T01:09:51;24.70;55.60
39189;DHT22;24915;50.858;4.376;2022-08-14T01:12:18;24.70;55.50
39189;DHT22;24915;50.858;4.376;2022-08-14T01:14:45;24.70;55.50
39189;DHT22;24915;50.858;4.376;2022-08-14T01:17:12;24.80;55.60
39189;DHT22;24915;50.858;4.376;2022-08-14T01:19:38;24.70;55.60
39189;DHT22;24915;50.858;4.376;2022-08-14T01:22:22;24.80;55.70
39189;DHT22;24915;50.858;4.376;2022-08-14T01:24:48;24.80;55.70
39189;DHT22;24915;50.858;4.376;2022-08-14T01:27:15;24.70;55.80
39189;DHT22;24915;50.858;4.376;2022-08-14T01:29:45;24.60;56.00
39189;DHT22;24915;50.858;4.376;2022-08-14T01:32:11;24.60;56.00
39189;DHT22;24915;50.858;4.376;2022-08-14T01:34:37;24.60;56.10
39189;DHT22;24915;50.858;4.376;2022-08-14T01:37:03;24.60;56.20
39189;DHT22;24915;50.858;4.376;2022-08-14T01:39:29;24.60;56.10
39189;DHT22;24915;50.858;4.376;2022-08-14T01:41:55;24.60;55.80
39189;DHT22;24915;50.858;4.376;2022-08-14T01:44:26;24.60;55.90
39189;DHT22;24915;50.858;4.376;2022-08-14T01:46:56;24.60;56.00
39189;DHT22;24915;50.858;4.376;2022-08-14T01:49:24;24.50;55.40
39189;DHT22;24915;50.858;4.376;2022-08-14T01:51:50;24.50;55.80
39189;DHT22;24915;50.858;4.376;2022-08-14T01:54:23;24.50;56.20
39189;DHT22;24915;50.858;4.376;2022-08-14T01:56:54;24.50;56.40
39189;DHT22;24915;50.858;4.376;2022-08-14T01:59:31;24.40;56.40
39189;DHT22;24915;50.858;4.376;2022-08-14T02:02:03;24.40;56.30
39189;DHT22;24915;50.858;4.376;2022-08-14T02:04:33;24.40;56.00
39189;DHT22;24915;50.858;4.376;2022-08-14T02:07:00;24.40;56.00
39189;DHT22;24915;50.858;4.376;2022-08-14T02:09:28;24.40;56.10
39189;DHT22;24915;50.858;4.376;2022-08-14T02:12:00;24.30;56.80
39189;DHT22;24915;50.858;4.376;2022-08-14T02:14:26;24.30;56.40
39189;DHT22;24915;50.858;4.376;2022-08-14T02:16:53;24.30;56.40
39189;DHT22;24915;50.858;4.376;2022-08-14T02:19:26;24.30;56.20
39189;DHT22;24915;50.858;4.376;2022-08-14T02:21:55;24.30;56.30
39189;DHT22;24915;50.858;4.376;2022-08-14T02:24:24;24.20;57.00
39189;DHT22;24915;50.858;4.376;2022-08-14T02:26:50;24.20;56.60
39189;DHT22;24915;50.858;4.376;2022-08-14T02:29:19;24.10;56.60
39189;DHT22;24915;50.858;4.376;2022-08-14T02:31:53;24.10;57.30
39189;DHT22;24915;50.858;4.376;2022-08-14T02:34:31;24.10;56.90
39189;DHT22;24915;50.858;4.376;2022-08-14T02:37:00;24.00;56.90
39189;DHT22;24915;50.858;4.376;2022-08-14T02:39:31;24.00;57.00
39189;DHT22;24915;50.858;4.376;2022-08-14T02:41:57;24.10;56.90
39189;DHT22;24915;50.858;4.376;2022-08-14T02:44:23;24.10;57.00
39189;DHT22;24915;50.858;4.376;2022-08-14T02:46:52;24.00;57.10
39189;DHT22;24915;50.858;4.376;2022-08-14T02:49:18;24.00;57.30
39189;DHT22;24915;50.858;4.376;2022-08-14T02:51:51;23.90;57.30
39189;DHT22;24915;50.858;4.376;2022-08-14T02:54:17;23.90;57.70
39189;DHT22;24915;50.858;4.376;2022-08-14T02:56:42;23.90;58.10
39189;DHT22;24915;50.858;4.376;2022-08-14T02:59:09;23.90;58.30
39189;DHT22;24915;50.858;4.376;2022-08-14T03:01:36;23.90;59.00
39189;DHT22;24915;50.858;4.376;2022-08-14T03:04:03;23.90;59.10
39189;DHT22;24915;50.858;4.376;2022-08-14T03:06:30;23.90;59.30
39189;DHT22;24915;50.858;4.376;2022-08-14T03:08:56;23.80;59.20
39189;DHT22;24915;50.858;4.376;2022-08-14T03:11:24;23.80;59.60
39189;DHT22;24915;50.858;4.376;2022-08-14T03:13:51;23.80;59.70
39189;DHT22;24915;50.858;4.376;2022-08-14T03:16:22;23.70;59.90
39189;DHT22;24915;50.858;4.376;2022-08-14T03:18:50;23.70;60.00
39189;DHT22;24915;50.858;4.376;2022-08-14T03:21:19;23.70;60.30
39189;DHT22;24915;50.858;4.376;2022-08-14T03:23:48;23.60;60.30
39189;DHT22;24915;50.858;4.376;2022-08-14T03:26:16;23.60;59.60
39189;DHT22;24915;50.858;4.376;2022-08-14T03:28:43;23.60;59.60
39189;DHT22;24915;50.858;4.376;2022-08-14T03:31:10;23.50;58.50
39189;DHT22;24915;50.858;4.376;2022-08-14T03:33:37;23.50;58.30
39189;DHT22;24915;50.858;4.376;2022-08-14T03:36:07;23.50;58.20
39189;DHT22;24915;50.858;4.376;2022-08-14T03:38:38;23.50;58.10
39189;DHT22;24915;50.858;4.376;2022-08-14T03:41:08;23.50;58.20
39189;DHT22;24915;50.858;4.376;2022-08-14T03:43:39;23.50;58.00
39189;DHT22;24915;50.858;4.376;2022-08-14T03:46:05;23.50;58.10
39189;DHT22;24915;50.858;4.376;2022-08-14T03:48:31;23.40;58.00
39189;DHT22;24915;50.858;4.376;2022-08-14T03:50:56;23.40;58.10
39189;DHT22;24915;50.858;4.376;2022-08-14T03:53:22;23.40;58.40
39189;DHT22;24915;50.858;4.376;2022-08-14T03:55:47;23.50;58.60
39189;DHT22;24915;50.858;4.376;2022-08-14T03:58:13;23.50;59.50
39189;DHT22;24915;50.858;4.376;2022-08-14T04:00:40;23.50;59.40
39189;DHT22;24915;50.858;4.376;2022-08-14T04:03:08;23.40;59.90
39189;DHT22;24915;50.858;4.376;2022-08-14T04:05:35;23.40;59.90
39189;DHT22;24915;50.858;4.376;2022-08-14T04:08:04;23.50;60.20
39189;DHT22;24915;50.858;4.376;2022-08-14T04:10:30;23.50;60.40
39189;DHT22;24915;50.858;4.376;2022-08-14T04:12:56;23.40;60.40
39189;DHT22;24915;50.858;4.376;2022-08-14T04:15:25;23.40;60.40
39189;DHT22;24915;50.858;4.376;2022-08-14T04:17:52;23.40;60.60
39189;DHT22;24915;50.858;4.376;2022-08-14T04:20:19;23.40;60.40
39189;DHT22;24915;50.858;4.376;2022-08-14T04:22:44;23.30;60.30
39189;DHT22;24915;50.858;4.376;2022-08-14T04:25:10;23.30;60.00
39189;DHT22;24915;50.858;4.376;2022-08-14T04:27:37;23.30;60.00
39189;DHT22;24915;50.858;4.376;2022-08-14T04:30:06;23.30;59.90
39189;DHT22;24915;50.858;4.376;2022-08-14T04:32:32;23.20;60.00
39189;DHT22;24915;50.858;4.376;2022-08-14T04:34:59;23.20;60.00
39189;DHT22;24915;50.858;4.376;2022-08-14T04:37:25;23.20;60.00
39189;DHT22;24915;50.858;4.376;2022-08-14T04:40:10;23.20;60.30
39189;DHT22;24915;50.858;4.376;2022-08-14T04:42:55;23.10;60.40
39189;DHT22;24915;50.858;4.376;2022-08-14T04:45:39;23.10;60.70
39189;DHT22;24915;50.858;4.376;2022-08-14T04:48:09;23.10;60.90
39189;DHT22;24915;50.858;4.376;2022-08-14T04:50:41;23.10;62.10
39189;DHT22;24915;50.858;4.376;2022-08-14T04:53:08;23.10;61.50
39189;DHT22;24915;50.858;4.376;2022-08-14T04:55:37;23.10;61.70
39189;DHT22;24915;50.858;4.376;2022-08-14T04:58:03;23.10;61.90
39189;DHT22;24915;50.858;4.376;2022-08-14T05:00:30;23.10;62.40
39189;DHT22;24915;50.858;4.376;2022-08-14T05:02:56;23.10;62.70
39189;DHT22;24915;50.858;4.376;2022-08-14T05:05:23;23.10;62.30
39189;DHT22;24915;50.858;4.376;2022-08-14T05:07:51;23.00;62.60
39189;DHT22;24915;50.858;4.376;2022-08-14T05:10:17;23.10;62.40
39189;DHT22;24915;50.858;4.376;2022-08-14T05:12:48;23.10;62.40
39189;DHT22;24915;50.858;4.376;2022-08-14T05:15:14;23.10;62.70
39189;DHT22;24915;50.858;4.376;2022-08-14T05:17:41;23.20;62.60
39189;DHT22;24915;50.858;4.376;2022-08-14T05:20:08;23.20;62.40
39189;DHT22;24915;50.858;4.376;2022-08-14T05:22:33;23.30;62.60
39189;DHT22;24915;50.858;4.376;2022-08-14T05:24:59;23.30;63.00
39189;DHT22;24915;50.858;4.376;2022-08-14T05:27:26;23.30;62.70
39189;DHT22;24915;50.858;4.376;2022-08-14T05:29:53;23.40;63.60
39189;DHT22;24915;50.858;4.376;2022-08-14T05:32:20;23.40;62.60
39189;DHT22;24915;50.858;4.376;2022-08-14T05:34:46;23.50;62.00
39189;DHT22;24915;50.858;4.376;2022-08-14T05:37:12;23.60;61.70
39189;DHT22;24915;50.858;4.376;2022-08-14T05:39:38;23.70;61.50
39189;DHT22;24915;50.858;4.376;2022-08-14T05:42:06;23.80;59.70
39189;DHT22;24915;50.858;4.376;2022-08-14T05:44:32;23.80;58.80
39189;DHT22;24915;50.858;4.376;2022-08-14T05:46:58;23.80;58.80
39189;DHT22;24915;50.858;4.376;2022-08-14T05:49:24;23.80;58.90
39189;DHT22;24915;50.858;4.376;2022-08-14T05:51:50;23.90;59.10
39189;DHT22;24915;50.858;4.376;2022-08-14T05:54:16;24.10;58.30
39189;DHT22;24915;50.858;4.376;2022-08-14T05:56:41;24.20;57.70
39189;DHT22;24915;50.858;4.376;2022-08-14T05:59:07;24.20;57.60
39189;DHT22;24915;50.858;4.376;2022-08-14T06:01:33;24.30;57.30
39189;DHT22;24915;50.858;4.376;2022-08-14T06:03:59;24.30;57.00
39189;DHT22;24915;50.858;4.376;2022-08-14T06:06:24;24.30;57.00
39189;DHT22;24915;50.858;4.376;2022-08-14T06:08:50;24.30;56.90
39189;DHT22;24915;50.858;4.376;2022-08-14T06:11:16;24.30;57.10
39189;DHT22;24915;50.858;4.376;2022-08-14T06:13:42;24.40;57.00
39189;DHT22;24915;50.858;4.376;2022-08-14T06:16:08;24.50;56.70
39189;DHT22;24915;50.858;4.376;2022-08-14T06:18:35;24.70;56.60
39189;DHT22;24915;50.858;4.376;2022-08-14T06:21:02;24.90;56.30
39189;DHT22;24915;50.858;4.376;2022-08-14T06:23:27;25.00;56.00
39189;DHT22;24915;50.858;4.376;2022-08-14T06:25:53;25.20;56.20
39189;DHT22;24915;50.858;4.376;2022-08-14T06:28:21;25.40;55.60
39189;DHT22;24915;50.858;4.376;2022-08-14T06:30:47;25.50;55.20
39189;DHT22;24915;50.858;4.376;2022-08-14T06:33:14;25.50;54.70
39189;DHT22;24915;50.858;4.376;2022-08-14T06:35:41;25.70;54.60
39189;DHT22;24915;50.858;4.376;2022-08-14T06:38:06;25.60;54.30
39189;DHT22;24915;50.858;4.376;2022-08-14T06:40:34;25.60;54.70
39189;DHT22;24915;50.858;4.376;2022-08-14T06:43:08;25.70;54.40
39189;DHT22;24915;50.858;4.376;2022-08-14T06:45:35;25.90;54.10
39189;DHT22;24915;50.858;4.376;2022-08-14T06:48:02;26.00;53.80
39189;DHT22;24915;50.858;4.376;2022-08-14T06:50:28;26.20;53.20
39189;DHT22;24915;50.858;4.376;2022-08-14T06:52:57;26.40;53.10
39189;DHT22;24915;50.858;4.376;2022-08-14T06:55:23;26.40;53.10
39189;DHT22;24915;50.858;4.376;2022-08-14T06:57:50;26.60;53.20
39189;DHT22;24915;50.858;4.376;2022-08-14T07:00:22;26.80;52.70
39189;DHT22;24915;50.858;4.376;2022-08-14T07:02:48;26.90;52.70
39189;DHT22;24915;50.858;4.376;2022-08-14T07:05:33;27.10;52.60
39189;DHT22;24915;50.858;4.376;2022-08-14T07:08:29;27.10;52.30
39189;DHT22;24915;50.858;4.376;2022-08-14T07:10:56;27.10;52.40
39189;DHT22;24915;50.858;4.376;2022-08-14T07:13:23;27.20;51.90
39189;DHT22;24915;50.858;4.376;2022-08-14T07:15:52;27.30;51.90
39189;DHT22;24915;50.858;4.376;2022-08-14T07:18:22;27.40;51.90
39189;DHT22;24915;50.858;4.376;2022-08-14T07:20:48;27.50;51.60
39189;DHT22;24915;50.858;4.376;2022-08-14T07:23:14;27.60;51.30
39189;DHT22;24915;50.858;4.376;2022-08-14T07:25:42;27.70;51.30
39189;DHT22;24915;50.858;4.376;2022-08-14T07:28:23;27.90;51.00
39189;DHT22;24915;50.858;4.376;2022-08-14T07:30:50;28.20;50.70
39189;DHT22;24915;50.858;4.376;2022-08-14T07:33:16;28.30;50.90
39189;DHT22;24915;50.858;4.376;2022-08-14T07:35:42;28.40;50.30
39189;DHT22;24915;50.858;4.376;2022-08-14T07:38:16;28.50;50.30
39189;DHT22;24915;50.858;4.376;2022-08-14T07:40:42;28.60;50.30
39189;DHT22;24915;50.858;4.376;2022-08-14T07:43:08;28.70;50.30
39189;DHT22;24915;50.858;4.376;2022-08-14T07:45:34;29.10;50.70
39189;DHT22;24915;50.858;4.376;2022-08-14T07:48:00;29.50;49.40
39189;DHT22;24915;50.858;4.376;2022-08-14T07:50:26;29.60;49.20
39189;DHT22;24915;50.858;4.376;2022-08-14T07:52:51;29.70;48.90
39189;DHT22;24915;50.858;4.376;2022-08-14T07:55:17;29.70;48.70
39189;DHT22;24915;50.858;4.376;2022-08-14T07:57:45;29.80;48.30
39189;DHT22;24915;50.858;4.376;2022-08-14T08:00:16;29.90;47.70
39189;DHT22;24915;50.858;4.376;2022-08-14T08:02:44;29.90;47.80
39189;DHT22;24915;50.858;4.376;2022-08-14T08:05:11;29.90;47.80
39189;DHT22;24915;50.858;4.376;2022-08-14T08:07:39;29.90;47.60
39189;DHT22;24915;50.858;4.376;2022-08-14T08:10:43;30.10;47.50
39189;DHT22;24915;50.858;4.376;2022-08-14T08:13:13;30.20;47.00
39189;DHT22;24915;50.858;4.376;2022-08-14T08:15:45;30.20;47.00
39189;DHT22;24915;50.858;4.376;2022-08-14T08:18:12;30.20;47.30
39189;DHT22;24915;50.858;4.376;2022-08-14T08:20:57;30.10;47.30
39189;DHT22;24915;50.858;4.376;2022-08-14T08:23:23;30.10;47.50
39189;DHT22;24915;50.858;4.376;2022-08-14T08:25:51;30.20;47.40
39189;DHT22;24915;50.858;4.376;2022-08-14T08:28:22;30.30;46.90
39189;DHT22;24915;50.858;4.376;2022-08-14T08:30:58;30.40;46.90
39189;DHT22;24915;50.858;4.376;2022-08-14T08:33:27;30.50;47.00
39189;DHT22;24915;50.858;4.376;2022-08-14T08:35:57;30.70;46.70
39189;DHT22;24915;50.858;4.376;2022-08-14T08:38:25;30.90;46.40
39189;DHT22;24915;50.858;4.376;2022-08-14T08:40:53;31.10;46.40
39189;DHT22;24915;50.858;4.376;2022-08-14T08:45:53;31.40;45.90
39189;DHT22;24915;50.858;4.376;2022-08-14T08:48:20;31.50;44.90
39189;DHT22;24915;50.858;4.376;2022-08-14T08:50:49;31.60;45.10
39189;DHT22;24915;50.858;4.376;2022-08-14T08:53:15;31.50;45.10
39189;DHT22;24915;50.858;4.376;2022-08-14T08:55:43;31.50;45.40
39189;DHT22;24915;50.858;4.376;2022-08-14T08:58:15;31.50;44.80
39189;DHT22;24915;50.858;4.376;2022-08-14T09:00:45;31.40;44.50
39189;DHT22;24915;50.858;4.376;2022-08-14T09:03:14;31.20;44.30
39189;DHT22;24915;50.858;4.376;2022-08-14T09:06:08;31.20;44.90
39189;DHT22;24915;50.858;4.376;2022-08-14T09:08:35;31.10;45.00
39189;DHT22;24915;50.858;4.376;2022-08-14T09:11:04;31.20;45.40
39189;DHT22;24915;50.858;4.376;2022-08-14T09:13:31;31.20;45.40
39189;DHT22;24915;50.858;4.376;2022-08-14T09:15:56;31.10;45.30
39189;DHT22;24915;50.858;4.376;2022-08-14T09:18:23;31.00;45.50
39189;DHT22;24915;50.858;4.376;2022-08-14T09:20:52;31.10;45.90
39189;DHT22;24915;50.858;4.376;2022-08-14T09:23:18;31.20;45.50
39189;DHT22;24915;50.858;4.376;2022-08-14T09:25:47;31.10;45.80
39189;DHT22;24915;50.858;4.376;2022-08-14T09:28:15;31.10;46.30
39189;DHT22;24915;50.858;4.376;2022-08-14T09:30:46;31.10;46.20
39189;DHT22;24915;50.858;4.376;2022-08-14T09:33:48;31.20;46.50
39189;DHT22;24915;50.858;4.376;2022-08-14T09:45:02;31.50;45.00
39189;DHT22;24915;50.858;4.376;2022-08-14T09:50:32;31.30;45.10
39189;DHT22;24915;50.858;4.376;2022-08-14T09:53:08;31.30;45.60
39189;DHT22;24915;50.858;4.376;2022-08-14T09:55:35;31.30;46.10
39189;DHT22;24915;50.858;4.376;2022-08-14T10:03:10;31.90;45.10
39189;DHT22;24915;50.858;4.376;2022-08-14T10:05:35;31.90;45.20
39189;DHT22;24915;50.858;4.376;2022-08-14T10:08:03;31.80;45.60
39189;DHT22;24915;50.858;4.376;2022-08-14T10:12:58;32.40;45.60
39189;DHT22;24915;50.858;4.376;2022-08-14T10:15:28;32.70;44.60
39189;DHT22;24915;50.858;4.376;2022-08-14T10:18:12;33.00;44.50
39189;DHT22;24915;50.858;4.376;2022-08-14T10:20:53;33.20;44.60
39189;DHT22;24915;50.858;4.376;2022-08-14T10:23:23;33.20;43.30
39189;DHT22;24915;50.858;4.376;2022-08-14T10:25:51;32.90;43.10
39189;DHT22;24915;50.858;4.376;2022-08-14T10:28:19;32.80;43.30
39189;DHT22;24915;50.858;4.376;2022-08-14T10:30:46;32.60;42.50
39189;DHT22;24915;50.858;4.376;2022-08-14T10:33:29;32.60;43.30
39189;DHT22;24915;50.858;4.376;2022-08-14T10:35:56;32.70;43.10
39189;DHT22;24915;50.858;4.376;2022-08-14T10:38:31;33.10;43.40
39189;DHT22;24915;50.858;4.376;2022-08-14T10:41:17;33.50;41.50
39189;DHT22;24915;50.858;4.376;2022-08-14T10:43:44;33.90;41.00
39189;DHT22;24915;50.858;4.376;2022-08-14T10:49:22;34.20;40.30
39189;DHT22;24915;50.858;4.376;2022-08-14T10:52:09;34.60;40.40
39189;DHT22;24915;50.858;4.376;2022-08-14T10:54:41;34.90;40.30
39189;DHT22;24915;50.858;4.376;2022-08-14T10:57:24;35.10;39.30
39189;DHT22;24915;50.858;4.376;2022-08-14T10:59:56;35.50;39.90
39189;DHT22;24915;50.858;4.376;2022-08-14T11:05:09;35.90;37.80
39189;DHT22;24915;50.858;4.376;2022-08-14T11:07:40;36.10;37.00
39189;DHT22;24915;50.858;4.376;2022-08-14T11:10:08;36.10;36.80
39189;DHT22;24915;50.858;4.376;2022-08-14T11:12:43;36.10;37.20
39189;DHT22;24915;50.858;4.376;2022-08-14T11:15:11;36.00;37.50
39189;DHT22;24915;50.858;4.376;2022-08-14T11:17:37;35.60;37.60
39189;DHT22;24915;50.858;4.376;2022-08-14T11:20:06;35.70;38.10
39189;DHT22;24915;50.858;4.376;2022-08-14T11:22:32;36.30;38.20
39189;DHT22;24915;50.858;4.376;2022-08-14T11:25:04;36.70;37.10
39189;DHT22;24915;50.858;4.376;2022-08-14T11:27:33;37.10;36.90
39189;DHT22;24915;50.858;4.376;2022-08-14T11:30:09;37.50;35.70
39189;DHT22;24915;50.858;4.376;2022-08-14T11:32:35;37.80;35.90
39189;DHT22;24915;50.858;4.376;2022-08-14T11:35:04;38.00;35.70
39189;DHT22;24915;50.858;4.376;2022-08-14T11:37:30;38.30;35.20
39189;DHT22;24915;50.858;4.376;2022-08-14T11:40:02;38.40;34.40
39189;DHT22;24915;50.858;4.376;2022-08-14T11:42:29;38.20;34.90
39189;DHT22;24915;50.858;4.376;2022-08-14T11:45:02;37.80;34.90
39189;DHT22;24915;50.858;4.376;2022-08-14T11:47:31;37.70;34.70
39189;DHT22;24915;50.858;4.376;2022-08-14T11:49:57;37.50;35.50
39189;DHT22;24915;50.858;4.376;2022-08-14T11:52:33;37.10;35.50
39189;DHT22;24915;50.858;4.376;2022-08-14T11:55:01;36.50;36.30
39189;DHT22;24915;50.858;4.376;2022-08-14T11:57:32;35.90;36.50
39189;DHT22;24915;50.858;4.376;2022-08-14T12:00:06;35.60;37.10
39189;DHT22;24915;50.858;4.376;2022-08-14T12:02:33;35.70;36.30
39189;DHT22;24915;50.858;4.376;2022-08-14T12:04:59;36.10;36.10
39189;DHT22;24915;50.858;4.376;2022-08-14T12:07:24;36.70;36.50
39189;DHT22;24915;50.858;4.376;2022-08-14T12:09:55;37.20;35.90
39189;DHT22;24915;50.858;4.376;2022-08-14T12:12:23;37.10;35.50
39189;DHT22;24915;50.858;4.376;2022-08-14T12:14:53;36.80;35.60
39189;DHT22;24915;50.858;4.376;2022-08-14T12:17:24;36.40;35.80
39189;DHT22;24915;50.858;4.376;2022-08-14T12:19:52;36.10;36.60
39189;DHT22;24915;50.858;4.376;2022-08-14T12:22:43;35.90;36.30
39189;DHT22;24915;50.858;4.376;2022-08-14T12:25:11;35.30;36.70
39189;DHT22;24915;50.858;4.376;2022-08-14T12:27:42;35.20;36.60
39189;DHT22;24915;50.858;4.376;2022-08-14T12:30:12;35.00;37.10
39189;DHT22;24915;50.858;4.376;2022-08-14T12:32:39;35.20;36.80
39189;DHT22;24915;50.858;4.376;2022-08-14T12:35:06;35.60;36.30
39189;DHT22;24915;50.858;4.376;2022-08-14T12:37:33;35.90;36.80
39189;DHT22;24915;50.858;4.376;2022-08-14T12:40:12;36.30;35.50
39189;DHT22;24915;50.858;4.376;2022-08-14T12:42:39;36.80;35.20
39189;DHT22;24915;50.858;4.376;2022-08-14T12:45:06;36.80;34.80
39189;DHT22;24915;50.858;4.376;2022-08-14T12:47:32;37.20;33.70
39189;DHT22;24915;50.858;4.376;2022-08-14T12:49:58;36.80;34.20
39189;DHT22;24915;50.858;4.376;2022-08-14T12:52:33;36.30;34.30
39189;DHT22;24915;50.858;4.376;2022-08-14T12:55:04;36.50;35.20
39189;DHT22;24915;50.858;4.376;2022-08-14T13:00:25;37.60;34.20
39189;DHT22;24915;50.858;4.376;2022-08-14T13:02:53;38.20;34.40
39189;DHT22;24915;50.858;4.376;2022-08-14T13:05:25;38.20;32.60
39189;DHT22;24915;50.858;4.376;2022-08-14T13:07:51;37.60;33.40
39189;DHT22;24915;50.858;4.376;2022-08-14T13:10:19;37.80;33.80
39189;DHT22;24915;50.858;4.376;2022-08-14T13:12:47;37.70;33.70
39189;DHT22;24915;50.858;4.376;2022-08-14T13:15:14;37.20;33.70
39189;DHT22;24915;50.858;4.376;2022-08-14T13:17:41;37.30;34.30
39189;DHT22;24915;50.858;4.376;2022-08-14T13:20:07;37.60;34.70
39189;DHT22;24915;50.858;4.376;2022-08-14T13:22:36;37.30;34.50
39189;DHT22;24915;50.858;4.376;2022-08-14T13:25:04;36.90;34.70
39189;DHT22;24915;50.858;4.376;2022-08-14T13:27:31;36.70;34.90
39189;DHT22;24915;50.858;4.376;2022-08-14T13:30:00;36.90;35.10
39189;DHT22;24915;50.858;4.376;2022-08-14T13:32:28;36.80;35.50
39189;DHT22;24915;50.858;4.376;2022-08-14T13:34:54;37.00;35.30
39189;DHT22;24915;50.858;4.376;2022-08-14T13:37:22;37.30;35.10
39189;DHT22;24915;50.858;4.376;2022-08-14T13:39:50;37.50;35.40
39189;DHT22;24915;50.858;4.376;2022-08-14T13:42:18;37.60;34.70
39189;DHT22;24915;50.858;4.376;2022-08-14T13:44:48;37.20;34.70
39189;DHT22;24915;50.858;4.376;2022-08-14T13:47:15;37.30;35.30
39189;DHT22;24915;50.858;4.376;2022-08-14T13:49:48;37.30;34.90
39189;DHT22;24915;50.858;4.376;2022-08-14T13:52:17;37.30;35.00
39189;DHT22;24915;50.858;4.376;2022-08-14T13:54:48;37.40;35.00
39189;DHT22;24915;50.858;4.376;2022-08-14T13:57:16;37.50;34.70
39189;DHT22;24915;50.858;4.376;2022-08-14T13:59:49;37.30;34.70
39189;DHT22;24915;50.858;4.376;2022-08-14T14:02:17;37.00;35.00
39189;DHT22;24915;50.858;4.376;2022-08-14T14:04:45;36.80;35.40
39189;DHT22;24915;50.858;4.376;2022-08-14T14:07:13;36.80;35.80
39189;DHT22;24915;50.858;4.376;2022-08-14T14:09:43;36.90;35.70
39189;DHT22;24915;50.858;4.376;2022-08-14T14:12:11;36.60;35.10
39189;DHT22;24915;50.858;4.376;2022-08-14T14:14:38;36.10;35.20
39189;DHT22;24915;50.858;4.376;2022-08-14T14:17:05;35.80;35.00
39189;DHT22;24915;50.858;4.376;2022-08-14T14:19:31;35.70;35.60
39189;DHT22;24915;50.858;4.376;2022-08-14T14:22:01;35.60;35.80
39189;DHT22;24915;50.858;4.376;2022-08-14T14:24:28;35.50;36.00
39189;DHT22;24915;50.858;4.376;2022-08-14T14:27:02;35.10;36.10
39189;DHT22;24915;50.858;4.376;2022-08-14T14:29:32;34.70;36.00
39189;DHT22;24915;50.858;4.376;2022-08-14T14:32:00;34.40;36.60
39189;DHT22;24915;50.858;4.376;2022-08-14T14:34:27;34.30;36.90
39189;DHT22;24915;50.858;4.376;2022-08-14T14:36:55;34.50;37.00
39189;DHT22;24915;50.858;4.376;2022-08-14T14:39:23;34.70;36.60
39189;DHT22;24915;50.858;4.376;2022-08-14T14:41:54;34.60;36.40
39189;DHT22;24915;50.858;4.376;2022-08-14T14:44:23;34.50;36.20
39189;DHT22;24915;50.858;4.376;2022-08-14T14:46:49;34.50;36.50
39189;DHT22;24915;50.858;4.376;2022-08-14T14:49:20;34.40;36.50
39189;DHT22;24915;50.858;4.376;2022-08-14T14:51:46;34.60;37.00
39189;DHT22;24915;50.858;4.376;2022-08-14T14:54:12;34.70;36.30
39189;DHT22;24915;50.858;4.376;2022-08-14T14:56:39;34.70;36.80
39189;DHT22;24915;50.858;4.376;2022-08-14T14:59:11;34.70;36.80
39189;DHT22;24915;50.858;4.376;2022-08-14T15:01:37;34.50;37.10
39189;DHT22;24915;50.858;4.376;2022-08-14T15:04:06;34.40;37.30
39189;DHT22;24915;50.858;4.376;2022-08-14T15:06:34;34.30;37.40
39189;DHT22;24915;50.858;4.376;2022-08-14T15:09:01;34.20;37.50
39189;DHT22;24915;50.858;4.376;2022-08-14T15:11:27;34.10;37.80
39189;DHT22;24915;50.858;4.376;2022-08-14T15:13:53;34.10;37.90
39189;DHT22;24915;50.858;4.376;2022-08-14T15:16:20;34.00;37.70
39189;DHT22;24915;50.858;4.376;2022-08-14T15:18:46;33.80;38.00
39189;DHT22;24915;50.858;4.376;2022-08-14T15:21:12;33.80;38.50
39189;DHT22;24915;50.858;4.376;2022-08-14T15:23:38;33.80;38.20
39189;DHT22;24915;50.858;4.376;2022-08-14T15:26:06;33.50;38.10
39189;DHT22;24915;50.858;4.376;2022-08-14T15:28:32;33.30;38.60
39189;DHT22;24915;50.858;4.376;2022-08-14T15:31:02;33.20;38.50
39189;DHT22;24915;50.858;4.376;2022-08-14T15:33:29;33.00;38.50
39189;DHT22;24915;50.858;4.376;2022-08-14T15:36:13;33.00;38.80
39189;DHT22;24915;50.858;4.376;2022-08-14T15:38:39;33.20;38.70
39189;DHT22;24915;50.858;4.376;2022-08-14T15:41:05;33.30;38.90
39189;DHT22;24915;50.858;4.376;2022-08-14T15:43:32;33.40;38.70
39189;DHT22;24915;50.858;4.376;2022-08-14T15:46:02;33.50;38.40
39189;DHT22;24915;50.858;4.376;2022-08-14T15:48:29;33.60;38.50
39189;DHT22;24915;50.858;4.376;2022-08-14T15:50:56;33.60;37.80
39189;DHT22;24915;50.858;4.376;2022-08-14T15:53:22;33.50;37.70
39189;DHT22;24915;50.858;4.376;2022-08-14T15:55:49;33.40;37.90
39189;DHT22;24915;50.858;4.376;2022-08-14T15:58:14;33.30;37.90
39189;DHT22;24915;50.858;4.376;2022-08-14T16:00:41;33.40;38.00
39189;DHT22;24915;50.858;4.376;2022-08-14T16:03:25;33.40;38.20
39189;DHT22;24915;50.858;4.376;2022-08-14T16:05:51;33.30;38.00
39189;DHT22;24915;50.858;4.376;2022-08-14T16:08:17;33.30;38.20
39189;DHT22;24915;50.858;4.376;2022-08-14T16:10:43;33.40;38.10